CDT,Max TemperatureF,Mean TemperatureF,Min TemperatureF,Max Dew PointF,MeanDew PointF,Min DewpointF,Max Humidity, Mean Humidity, Min Humidity, Max Sea Level PressureIn, Mean Sea Level PressureIn, Min Sea Level PressureIn, Max VisibilityMiles, Mean VisibilityMiles, Min VisibilityMiles, Max Wind SpeedMPH, Mean Wind SpeedMPH, Max Gust SpeedMPH,PrecipitationIn, CloudCover, Events, WindDirDegrees
2012-3-1,79,73,67,70,68,66,100,86,71,29.98,29.91,29.78,10,5,0,21,11,25,0.01,8,Fog,196
2012-3-2,79,74,68,70,69,68,100,88,76,29.81,29.76,29.70,10,7,2,23,13,29,0.01,7,Rain,192
2012-3-3,70,59,47,63,44,24,93,59,25,30.17,29.90,29.71,10,9,2,25,13,30,0.70,5,Rain-Thunderstorm,5
2012-3-4,71,56,40,48,38,24,89,54,19,30.27,30.21,30.17,10,10,10,17,6,24,0.00,0,,247
2012-3-5,76,60,44,54,48,43,100,67,33,30.39,30.33,30.27,10,10,10,14,4,16,0.00,0,,200
2012-3-6,75,63,50,60,56,51,100,75,49,30.32,30.24,30.16,10,10,10,24,11,33,0.00,2,,140
2012-3-7,78,71,64,68,65,61,97,81,64,30.15,30.09,30.04,10,10,8,28,19,37,0.00,6,,140
2012-3-8,79,75,70,70,69,68,100,88,76,30.09,30.04,30.01,10,6,2,39,17,48,0.00,8,,159
2012-3-9,70,60,49,70,54,48,100,95,89,30.31,30.19,30.05,10,7,2,26,16,32,1.72,8,Rain-Thunderstorm,16
2012-3-10,64,57,50,56,49,45,93,79,64,30.27,30.19,30.12,10,10,8,22,12,31,0.00,6,,70
2012-3-11,73,66,59,70,65,57,100,92,84,30.11,30.05,29.99,10,7,1,29,13,36,0.50,8,Rain,138
2012-3-12,77,70,63,71,68,64,100,91,82,30.14,30.08,30.02,10,7,0,16,8,22,T,8,Fog-Rain,174
2012-3-13,79,74,68,72,69,66,100,86,71,30.19,30.13,30.10,10,5,0,14,8,17,0.00,7,Fog,165
2012-3-14,80,74,68,70,69,67,100,85,69,30.20,30.16,30.11,10,9,5,20,10,23,0.00,6,,140
2012-3-15,80,74,68,70,68,66,100,84,67,30.23,30.17,30.13,10,9,6,17,9,23,0.00,5,,163
2012-3-16,79,73,67,70,68,66,100,84,67,30.20,30.14,30.10,10,8,5,16,9,21,0.00,4,,151
2012-3-17,80,75,69,70,69,67,97,84,71,30.13,30.09,30.05,10,10,10,20,13,24,0.00,5,,143
2012-3-18,78,74,70,70,70,69,93,85,76,30.10,30.05,30.00,10,10,9,25,17,31,0.00,7,,154
2012-3-19,79,75,71,70,69,68,93,82,71,29.99,29.89,29.78,10,10,7,33,22,45,0.00,7,,145
2012-3-20,74,66,58,69,61,57,100,92,84,29.83,29.75,29.68,10,5,1,32,18,45,4.22,8,Rain-Thunderstorm,349
2012-3-21,67,60,53,58,54,48,100,78,56,29.98,29.87,29.77,10,10,10,22,6,30,0.05,6,Rain-Thunderstorm,292
2012-3-22,76,64,51,60,56,50,100,77,54,30.00,29.95,29.91,10,10,10,16,7,22,0.00,0,,168
2012-3-23,82,67,51,63,57,47,100,65,30,30.04,29.98,29.94,10,4,0,14,3,16,0.00,2,Fog,302
2012-3-24,84,70,56,65,59,53,100,67,34,30.04,29.98,29.94,10,4,0,10,3,15,0.00,0,Fog,293
2012-3-25,85,71,56,66,60,52,100,66,32,30.06,30.01,29.96,10,4,0,9,3,14,0.00,0,Fog,333
2012-3-26,85,71,57,65,61,56,100,70,40,30.09,30.03,29.98,10,4,0,9,3,13,0.00,0,Fog,203
2012-3-27,82,70,58,66,62,59,100,76,52,30.11,30.04,30.00,10,5,0,14,4,21,0.00,1,Fog,178
2012-3-28,81,70,59,67,62,60,100,78,56,30.10,30.03,29.98,10,9,2,14,5,18,0.00,2,,163
2012-3-29,80,72,63,68,65,63,100,81,62,29.99,29.92,29.88,10,9,2,17,6,23,0.29,5,Rain-Thunderstorm,153
2012-3-30,80,72,64,70,68,65,100,87,74,29.92,29.87,29.81,10,9,4,18,7,23,0.02,5,Rain,144
2012-3-31,83,73,62,70,67,62,100,79,58,29.94,29.88,29.84,10,6,0,15,5,20,0.00,4,Fog,189